Time;durP1;ratioP1;P1;durP2;ratioP2;P2;SDS_P1;SDS_P2;PMS_P1;PMS_P2;Temp;Humidity;BMP_temperature;BMP_pressure;BME280_temperature;BME280_humidity;BME280_pressure;Samples;Min_cycle;Max_cycle;Signal;HPM_P1;HPM_P2
2022/07/25 00:00:04;;;;;;;0.80;0.80;;;24.10;60.90;;;;;;5055836;28;20040;-21
2022/07/25 00:02:30;;;;;;;0.60;0.60;;;24.10;60.90;;;;;;5056978;28;20035;-23
2022/07/25 00:04:55;;;;;;;0.70;0.70;;;24.10;60.90;;;;;;5056460;28;20041;-22
2022/07/25 00:07:21;;;;;;;0.90;0.90;;;24.10;60.80;;;;;;5055853;28;20067;-25
2022/07/25 00:09:47;;;;;;;0.70;0.70;;;24.10;60.70;;;;;;5057720;28;20113;-25
2022/07/25 00:12:12;;;;;;;0.80;0.80;;;24.10;60.70;;;;;;5056295;28;20044;-22
2022/07/25 00:14:38;;;;;;;1.02;0.60;;;24.10;60.80;;;;;;5056647;28;20042;-22
2022/07/25 00:17:03;;;;;;;0.70;0.70;;;24.10;60.70;;;;;;5056656;28;20496;-22
2022/07/25 00:19:29;;;;;;;0.65;0.65;;;24.10;60.70;;;;;;5056848;28;20088;-20
2022/07/25 00:21:54;;;;;;;1.08;1.00;;;24.10;60.70;;;;;;5057800;28;20045;-20
2022/07/25 00:24:20;;;;;;;0.70;0.70;;;24.10;60.60;;;;;;5056197;28;20052;-25
2022/07/25 00:26:45;;;;;;;0.70;0.70;;;24.10;60.50;;;;;;5058384;28;20051;-20
2022/07/25 00:29:11;;;;;;;0.55;0.55;;;24.10;60.50;;;;;;5058559;28;20050;-19
2022/07/25 00:31:37;;;;;;;0.60;0.60;;;24.10;60.50;;;;;;5054709;28;20052;-21
2022/07/25 00:34:02;;;;;;;0.68;0.68;;;24.10;60.60;;;;;;5054728;28;20153;-19
2022/07/25 00:36:28;;;;;;;0.70;0.70;;;24.00;60.70;;;;;;5056067;28;20049;-21
2022/07/25 00:38:53;;;;;;;0.60;0.60;;;24.10;60.50;;;;;;5060761;28;20090;-19
2022/07/25 00:41:19;;;;;;;0.80;0.80;;;24.10;60.50;;;;;;5053532;28;20509;-20
2022/07/25 00:43:45;;;;;;;0.73;0.73;;;24.10;60.60;;;;;;5054922;28;20044;-20
2022/07/25 00:46:14;;;;;;;0.63;0.63;;;24.00;60.60;;;;;;5053459;28;20025;-20
2022/07/25 00:48:40;;;;;;;0.63;0.63;;;24.00;60.50;;;;;;5053533;28;20132;-19
2022/07/25 00:51:06;;;;;;;0.55;0.55;;;24.00;60.50;;;;;;5055798;28;20124;-17
2022/07/25 00:53:31;;;;;;;0.60;0.60;;;24.00;60.70;;;;;;5059772;28;20572;-20
2022/07/25 00:55:57;;;;;;;0.60;0.60;;;24.10;60.50;;;;;;5055423;28;20049;-22
2022/07/25 00:58:23;;;;;;;0.50;0.50;;;24.00;60.60;;;;;;5053986;28;20520;-20
2022/07/25 01:00:48;;;;;;;0.70;0.70;;;24.00;60.50;;;;;;5054988;28;20145;-20
2022/07/25 01:03:14;;;;;;;0.73;0.73;;;24.00;60.60;;;;;;5055152;28;20090;-20
2022/07/25 01:05:40;;;;;;;0.68;0.68;;;24.00;60.70;;;;;;5053397;28;20048;-21
2022/07/25 01:08:05;;;;;;;0.75;0.70;;;24.00;60.70;;;;;;5055248;28;20125;-20
2022/07/25 01:10:31;;;;;;;0.50;0.50;;;24.00;60.60;;;;;;5056641;28;20428;-21
2022/07/25 01:12:57;;;;;;;0.63;0.63;;;24.00;60.50;;;;;;5055942;28;20511;-20
2022/07/25 01:15:23;;;;;;;0.50;0.50;;;24.00;60.60;;;;;;5057787;28;20052;-20
2022/07/25 01:17:48;;;;;;;0.50;0.50;;;24.00;60.60;;;;;;5057319;28;20039;-23
2022/07/25 01:20:21;;;;;;;1.17;0.68;;;24.00;60.60;;;;;;5056563;28;20040;-21
2022/07/25 01:22:47;;;;;;;0.50;0.50;;;24.00;60.60;;;;;;5054336;28;20037;-20
2022/07/25 01:25:13;;;;;;;0.70;0.70;;;24.00;60.50;;;;;;5056354;28;20097;-20
2022/07/25 01:27:39;;;;;;;0.50;0.50;;;24.00;60.60;;;;;;5060436;28;20045;-21
2022/07/25 01:30:06;;;;;;;0.80;0.80;;;24.00;60.60;;;;;;5057970;28;20059;-20
2022/07/25 01:32:31;;;;;;;0.50;0.50;;;24.00;60.50;;;;;;5057678;28;20044;-20
2022/07/25 01:34:57;;;;;;;0.60;0.60;;;24.00;60.60;;;;;;5063455;28;20577;-20
2022/07/25 01:37:22;;;;;;;0.50;0.50;;;24.00;60.70;;;;;;5058280;28;20533;-20
2022/07/25 01:39:48;;;;;;;0.57;0.57;;;24.00;60.60;;;;;;5061485;28;20044;-20
2022/07/25 01:42:14;;;;;;;0.60;0.60;;;24.00;60.50;;;;;;5059245;28;20094;-20
2022/07/25 01:44:39;;;;;;;0.50;0.50;;;24.00;60.60;;;;;;5062136;28;20036;-20
2022/07/25 01:47:05;;;;;;;0.40;0.40;;;24.00;60.60;;;;;;5057363;28;20107;-20
2022/07/25 01:49:30;;;;;;;1.85;0.73;;;24.00;60.60;;;;;;5058682;28;20105;-20
2022/07/25 01:51:56;;;;;;;0.47;0.47;;;24.00;60.50;;;;;;5062659;28;20523;-19
2022/07/25 01:54:21;;;;;;;0.65;0.65;;;24.00;60.50;;;;;;5061597;28;20040;-24
2022/07/25 01:56:47;;;;;;;0.70;0.70;;;24.00;60.60;;;;;;5058716;28;20455;-20
2022/07/25 01:59:13;;;;;;;0.50;0.50;;;24.00;60.70;;;;;;5059022;28;20045;-20
2022/07/25 02:01:39;;;;;;;0.60;0.60;;;24.00;60.50;;;;;;5059292;28;20040;-20
2022/07/25 02:04:04;;;;;;;0.43;0.43;;;24.00;60.50;;;;;;5059741;28;20090;-16
2022/07/25 02:18:52;;;;;;;0.45;0.45;;;24.00;60.00;;;;;;5012553;28;20273;-21
2022/07/25 02:21:17;;;;;;;0.50;0.50;;;24.00;60.50;;;;;;5006143;28;20037;-23
2022/07/25 02:23:43;;;;;;;0.50;0.50;;;24.00;60.50;;;;;;5010711;28;20028;-23
2022/07/25 02:26:10;;;;;;;0.40;0.40;;;24.00;60.50;;;;;;5013027;28;20553;-23
2022/07/25 02:28:35;;;;;;;0.50;0.50;;;24.00;60.60;;;;;;5016071;28;20032;-30
2022/07/25 02:31:01;;;;;;;0.40;0.40;;;24.00;60.60;;;;;;5011792;28;20494;-22
2022/07/25 02:33:26;;;;;;;0.50;0.50;;;24.00;60.60;;;;;;4990535;28;20034;-26
2022/07/25 02:35:52;;;;;;;0.40;0.40;;;24.00;60.60;;;;;;5011736;28;20116;-27
2022/07/25 02:38:20;;;;;;;0.40;0.40;;;24.00;60.60;;;;;;5012755;28;20074;-23
2022/07/25 02:40:47;;;;;;;0.40;0.40;;;24.00;60.60;;;;;;5013975;28;20034;-22
2022/07/25 02:43:12;;;;;;;0.50;0.50;;;24.00;60.70;;;;;;5013136;28;20541;-23
2022/07/25 02:45:38;;;;;;;0.40;0.40;;;24.00;60.70;;;;;;5008614;28;20048;-22
2022/07/25 02:48:04;;;;;;;0.40;0.40;;;24.00;60.60;;;;;;5017818;28;20098;-26
2022/07/25 02:50:29;;;;;;;0.40;0.40;;;24.00;60.70;;;;;;4992323;28;20123;-23
2022/07/25 02:52:55;;;;;;;0.50;0.50;;;24.00;60.70;;;;;;5006756;28;20397;-23
2022/07/25 02:55:20;;;;;;;0.52;0.52;;;24.00;60.70;;;;;;5011517;28;20511;-25
2022/07/25 02:57:46;;;;;;;0.38;0.38;;;24.00;60.70;;;;;;5006014;28;20072;-29
2022/07/25 03:00:12;;;;;;;0.40;0.40;;;24.00;60.70;;;;;;5014757;28;20531;-29
2022/07/25 03:02:38;;;;;;;0.30;0.30;;;24.00;60.80;;;;;;5009835;28;20430;-23
2022/07/25 03:05:10;;;;;;;0.40;0.40;;;24.00;60.70;;;;;;5010169;28;20117;-24
2022/07/25 03:07:36;;;;;;;0.35;0.32;;;24.00;60.60;;;;;;5010754;28;20120;-25
2022/07/25 03:10:03;;;;;;;0.30;0.30;;;24.00;60.70;;;;;;5009353;28;20472;-23
2022/07/25 03:12:28;;;;;;;0.40;0.40;;;24.00;60.70;;;;;;5009569;28;20117;-24
2022/07/25 03:14:54;;;;;;;0.38;0.38;;;24.00;60.80;;;;;;5009254;28;20105;-23
2022/07/25 03:17:19;;;;;;;0.30;0.30;;;24.00;60.80;;;;;;5012173;28;20558;-25
2022/07/25 03:19:45;;;;;;;0.40;0.40;;;24.00;60.90;;;;;;4997498;28;20032;-22
2022/07/25 03:22:10;;;;;;;0.40;0.40;;;24.00;60.80;;;;;;4998526;28;20146;-23
2022/07/25 03:24:36;;;;;;;0.38;0.38;;;24.00;60.90;;;;;;4996740;28;20030;-22
2022/07/25 03:27:02;;;;;;;0.30;0.30;;;24.00;60.90;;;;;;4997968;28;20113;-22
2022/07/25 03:29:27;;;;;;;0.20;0.20;;;24.00;60.90;;;;;;4996217;28;20026;-23
2022/07/25 03:31:53;;;;;;;0.30;0.30;;;23.90;60.80;;;;;;4997483;28;20036;-24
2022/07/25 03:34:18;;;;;;;0.38;0.38;;;24.00;60.80;;;;;;4998695;28;20026;-23
2022/07/25 03:36:44;;;;;;;0.30;0.30;;;23.90;60.80;;;;;;4999089;28;20117;-22
2022/07/25 03:39:09;;;;;;;0.30;0.30;;;24.00;61.00;;;;;;5010697;28;20041;-24
2022/07/25 03:41:35;;;;;;;0.30;0.30;;;24.00;60.90;;;;;;4995810;28;20113;-27
2022/07/25 03:44:01;;;;;;;0.30;0.30;;;24.00;60.90;;;;;;4998464;28;20033;-23
2022/07/25 03:46:26;;;;;;;0.30;0.30;;;23.90;61.60;;;;;;4998724;28;20038;-22
2022/07/25 03:48:52;;;;;;;0.30;0.30;;;23.90;60.90;;;;;;4998702;28;20427;-23
2022/07/25 03:51:17;;;;;;;0.20;0.20;;;24.00;60.90;;;;;;4994415;28;20056;-23
2022/07/25 03:54:01;;;;;;;0.30;0.30;;;23.90;60.90;;;;;;4998803;28;20086;-22
2022/07/25 03:56:44;;;;;;;0.40;0.32;;;24.00;60.90;;;;;;4990749;28;20026;-24
2022/07/25 03:59:11;;;;;;;0.22;0.22;;;23.90;60.90;;;;;;4999004;28;20034;-24
2022/07/25 04:01:36;;;;;;;0.35;0.35;;;23.90;60.80;;;;;;4996745;28;20061;-26
2022/07/25 04:04:02;;;;;;;0.30;0.30;;;23.90;60.90;;;;;;4996584;28;20683;-24
2022/07/25 04:06:28;;;;;;;0.30;0.30;;;23.90;60.90;;;;;;4995209;28;20035;-23
2022/07/25 04:08:54;;;;;;;0.28;0.28;;;23.90;61.00;;;;;;4995259;28;20103;-23
2022/07/25 04:11:20;;;;;;;0.40;0.40;;;23.90;61.00;;;;;;4993316;28;20026;-22
2022/07/25 04:13:46;;;;;;;0.30;0.30;;;24.00;61.00;;;;;;4999153;28;20049;-24
2022/07/25 04:16:12;;;;;;;0.25;0.25;;;23.90;61.00;;;;;;4997426;28;20054;-23
2022/07/25 04:18:37;;;;;;;0.40;0.40;;;24.00;61.00;;;;;;4995090;28;20080;-24
2022/07/25 04:21:03;;;;;;;0.30;0.30;;;24.00;61.00;;;;;;4995917;28;20032;-22
2022/07/25 04:23:29;;;;;;;0.20;0.20;;;23.90;61.00;;;;;;4996537;28;20030;-23
2022/07/25 04:25:55;;;;;;;0.43;0.30;;;23.90;61.10;;;;;;4999731;28;20388;-23
2022/07/25 04:28:20;;;;;;;0.30;0.30;;;23.90;61.10;;;;;;4994212;28;20041;-23
2022/07/25 04:30:46;;;;;;;0.30;0.30;;;23.90;61.10;;;;;;4994392;28;20034;-23
2022/07/25 04:33:12;;;;;;;0.20;0.20;;;23.90;61.10;;;;;;4993360;28;20065;-24
2022/07/25 04:35:38;;;;;;;0.35;0.35;;;24.00;61.10;;;;;;4997207;28;20027;-23
2022/07/25 04:38:03;;;;;;;0.20;0.20;;;23.90;61.00;;;;;;4994936;28;20099;-23
2022/07/25 04:40:29;;;;;;;0.20;0.20;;;23.90;61.10;;;;;;4996933;28;20030;-22
2022/07/25 04:42:54;;;;;;;0.30;0.30;;;24.00;61.20;;;;;;4994913;28;20590;-23
2022/07/25 04:45:20;;;;;;;0.20;0.20;;;23.90;61.10;;;;;;4995849;28;20031;-22
2022/07/25 04:47:46;;;;;;;0.40;0.40;;;23.90;61.10;;;;;;4994529;28;20030;-23
2022/07/25 04:50:11;;;;;;;0.20;0.20;;;23.90;61.10;;;;;;4996595;28;20114;-23
2022/07/25 04:52:37;;;;;;;0.20;0.20;;;23.90;61.10;;;;;;5000263;28;20033;-22
2022/07/25 04:55:03;;;;;;;0.32;0.32;;;23.90;61.00;;;;;;4998012;28;20030;-22
2022/07/25 04:57:29;;;;;;;0.20;0.20;;;23.90;61.10;;;;;;4977980;28;20041;-25
2022/07/25 04:59:55;;;;;;;0.20;0.20;;;24.00;61.20;;;;;;4995657;28;20033;-22
2022/07/25 05:02:20;;;;;;;0.20;0.20;;;23.90;61.10;;;;;;4998612;28;20028;-26
2022/07/25 05:04:46;;;;;;;0.20;0.20;;;23.90;61.10;;;;;;4981993;28;20025;-22
2022/07/25 05:07:11;;;;;;;0.40;0.28;;;23.90;61.10;;;;;;4996130;28;20964;-23
2022/07/25 05:09:37;;;;;;;0.20;0.20;;;24.00;61.10;;;;;;4996269;28;20022;-22
2022/07/25 05:12:03;;;;;;;0.20;0.20;;;23.90;61.20;;;;;;4994456;28;20064;-22
2022/07/25 05:14:28;;;;;;;0.15;0.15;;;23.90;61.90;;;;;;4994685;28;20039;-22
2022/07/25 05:16:54;;;;;;;0.30;0.30;;;23.90;61.10;;;;;;4994385;28;20102;-25
2022/07/25 05:19:20;;;;;;;0.13;0.13;;;23.90;61.10;;;;;;4997569;28;20570;-24
2022/07/25 05:21:45;;;;;;;0.20;0.20;;;23.90;61.10;;;;;;4996492;28;20026;-23
2022/07/25 05:24:11;;;;;;;0.13;0.13;;;23.90;61.10;;;;;;4998899;28;20041;-24
2022/07/25 05:26:36;;;;;;;0.22;0.22;;;24.00;61.10;;;;;;4998151;28;20045;-31
2022/07/25 05:29:02;;;;;;;0.20;0.20;;;23.90;61.10;;;;;;4995529;28;20493;-23
2022/07/25 05:31:28;;;;;;;0.20;0.20;;;23.90;61.00;;;;;;4995811;28;20521;-22
2022/07/25 05:33:53;;;;;;;0.28;0.20;;;24.00;61.10;;;;;;4992279;28;20427;-23
2022/07/25 05:36:19;;;;;;;0.15;0.15;;;23.90;61.10;;;;;;5004399;28;20064;-23
2022/07/25 05:38:44;;;;;;;0.30;0.30;;;24.00;61.10;;;;;;4999329;28;20022;-24
2022/07/25 05:41:10;;;;;;;0.20;0.20;;;23.90;61.00;;;;;;4997587;28;20031;-23
2022/07/25 05:43:35;;;;;;;0.20;0.20;;;23.90;61.10;;;;;;4996579;28;20094;-25
2022/07/25 05:46:02;;;;;;;0.10;0.10;;;23.90;61.00;;;;;;4994377;28;20520;-22
2022/07/25 05:48:28;;;;;;;0.20;0.20;;;23.90;61.10;;;;;;4977740;28;20427;-22
2022/07/25 05:50:53;;;;;;;0.10;0.10;;;24.00;61.10;;;;;;4992322;28;20018;-24
2022/07/25 05:53:19;;;;;;;0.20;0.20;;;24.00;61.10;;;;;;4994419;28;20579;-24
2022/07/25 05:55:44;;;;;;;1.20;0.40;;;23.90;62.50;;;;;;4997172;28;20046;-22
2022/07/25 05:58:10;;;;;;;0.52;0.43;;;23.70;64.60;;;;;;4995264;28;20030;-23
2022/07/25 06:00:36;;;;;;;0.70;0.70;;;23.50;65.70;;;;;;4994901;28;20038;-23
2022/07/25 06:03:02;;;;;;;1.73;0.80;;;23.50;66.30;;;;;;4648195;28;10000799;-23
2022/07/25 06:05:27;;;;;;;0.82;0.82;;;23.30;67.10;;;;;;4988385;28;20157;-23
2022/07/25 06:07:53;;;;;;;1.48;0.70;;;23.40;67.60;;;;;;4991773;28;20038;-22
2022/07/25 06:10:19;;;;;;;1.63;0.90;;;23.20;68.50;;;;;;4974069;28;20567;-24
2022/07/25 06:12:44;;;;;;;0.93;0.80;;;23.30;67.80;;;;;;4995472;28;20030;-24
2022/07/25 06:15:10;;;;;;;1.00;0.47;;;23.10;68.40;;;;;;4991997;28;20029;-23
2022/07/25 06:17:36;;;;;;;2.00;0.90;;;23.20;68.70;;;;;;4988130;28;20062;-23
2022/07/25 06:20:01;;;;;;;1.10;0.80;;;23.10;68.60;;;;;;4991206;28;20037;-23
2022/07/25 06:22:28;;;;;;;0.90;0.90;;;23.10;68.40;;;;;;4992184;28;20532;-26
2022/07/25 06:24:54;;;;;;;1.27;0.73;;;23.10;68.60;;;;;;4988759;28;20504;-23
2022/07/25 06:27:19;;;;;;;0.73;0.57;;;23.00;68.80;;;;;;4993400;28;20038;-23
2022/07/25 06:29:45;;;;;;;2.25;1.25;;;23.00;68.80;;;;;;4992920;28;20049;-23
2022/07/25 06:32:10;;;;;;;1.20;0.90;;;23.10;68.20;;;;;;4989282;28;20034;-22
2022/07/25 06:34:36;;;;;;;2.88;1.10;;;23.00;68.20;;;;;;4991834;28;20638;-22
2022/07/25 06:37:02;;;;;;;1.20;1.10;;;23.00;68.00;;;;;;5004033;28;20041;-25
2022/07/25 06:39:27;;;;;;;1.33;0.90;;;22.90;68.10;;;;;;4986377;28;20026;-24
2022/07/25 06:41:53;;;;;;;1.65;1.00;;;22.90;68.00;;;;;;4986797;28;20055;-25
2022/07/25 06:44:18;;;;;;;1.27;1.00;;;23.00;68.00;;;;;;4992092;28;20041;-22
2022/07/25 06:46:44;;;;;;;1.17;1.05;;;23.10;67.50;;;;;;4997796;28;20038;-27
2022/07/25 06:49:09;;;;;;;1.20;0.90;;;23.10;66.90;;;;;;4994574;28;20476;-23
2022/07/25 06:51:35;;;;;;;1.63;0.95;;;23.20;66.90;;;;;;4993662;28;20087;-25
2022/07/25 06:54:00;;;;;;;1.30;1.10;;;23.30;66.60;;;;;;4995278;28;20030;-22
2022/07/25 06:56:30;;;;;;;1.25;0.98;;;23.30;66.30;;;;;;4994938;28;20500;-23
2022/07/25 06:58:56;;;;;;;1.50;0.98;;;23.30;66.10;;;;;;4994577;28;20030;-31
2022/07/25 07:01:22;;;;;;;1.65;0.90;;;23.40;66.10;;;;;;4996592;28;20112;-24
2022/07/25 07:03:47;;;;;;;1.10;1.00;;;23.40;66.00;;;;;;4996900;28;20113;-22
2022/07/25 07:06:13;;;;;;;1.25;1.05;;;23.30;65.80;;;;;;4997163;28;20034;-31
2022/07/25 07:08:38;;;;;;;1.35;1.25;;;23.30;65.90;;;;;;4996533;28;20022;-23
2022/07/25 07:11:05;;;;;;;1.40;1.10;;;23.40;65.70;;;;;;4993560;28;20034;-25
2022/07/25 07:13:30;;;;;;;0.70;0.70;;;23.30;65.50;;;;;;4996465;28;20467;-23
2022/07/25 07:15:56;;;;;;;1.33;1.10;;;23.40;65.40;;;;;;4997088;28;20539;-27
2022/07/25 07:18:21;;;;;;;1.35;0.85;;;23.40;65.40;;;;;;5001353;28;20053;-25
2022/07/25 07:20:47;;;;;;;0.80;0.80;;;23.40;65.10;;;;;;5007448;28;20038;-24
2022/07/25 07:23:13;;;;;;;0.70;0.70;;;23.40;65.00;;;;;;4976847;28;20038;-29
2022/07/25 07:25:38;;;;;;;1.02;0.90;;;23.40;65.10;;;;;;5007834;28;20026;-22
2022/07/25 07:28:04;;;;;;;0.80;0.80;;;23.40;64.70;;;;;;5013617;28;20037;-22
2022/07/25 07:30:30;;;;;;;0.70;0.70;;;23.40;64.60;;;;;;5009597;28;20543;-24
2022/07/25 07:32:56;;;;;;;0.70;0.70;;;23.40;64.60;;;;;;5009391;28;20082;-23
2022/07/25 07:35:21;;;;;;;0.80;0.65;;;23.40;64.50;;;;;;5009590;28;20026;-22
2022/07/25 07:37:47;;;;;;;1.23;0.80;;;23.40;64.40;;;;;;5010920;28;20057;-22
2022/07/25 07:40:13;;;;;;;0.90;0.90;;;23.50;64.40;;;;;;5010348;28;20034;-23
2022/07/25 07:42:43;;;;;;;0.50;0.50;;;23.50;64.30;;;;;;5009128;28;20461;-23
2022/07/25 07:45:12;;;;;;;0.80;0.80;;;23.50;64.20;;;;;;4991044;28;20034;-22
2022/07/25 07:47:37;;;;;;;1.05;0.60;;;23.50;64.10;;;;;;5009310;28;20030;-22
2022/07/25 07:50:03;;;;;;;1.10;0.85;;;23.50;64.80;;;;;;5009511;28;20060;-24
2022/07/25 07:52:29;;;;;;;1.10;0.70;;;23.50;63.90;;;;;;5011151;28;20388;-31
2022/07/25 07:57:39;;;;;;;;;;;23.50;63.80;;;;;;5009470;28;20077;-28
2022/07/25 08:00:05;;;;;;;0.70;0.70;;;23.50;63.70;;;;;;5007827;28;19963;-26
2022/07/25 08:02:31;;;;;;;0.55;0.55;;;23.50;63.60;;;;;;5009079;28;20415;-23
2022/07/25 08:04:57;;;;;;;0.82;0.50;;;23.50;63.50;;;;;;5008987;28;20518;-24
2022/07/25 08:07:22;;;;;;;0.60;0.60;;;23.50;63.50;;;;;;5011220;28;20109;-23
2022/07/25 08:09:48;;;;;;;0.73;0.70;;;23.50;63.40;;;;;;5009160;28;20377;-23
2022/07/25 08:12:13;;;;;;;0.80;0.80;;;23.50;63.30;;;;;;5008518;28;20087;-23
2022/07/25 08:14:39;;;;;;;0.60;0.60;;;23.60;63.40;;;;;;5009068;28;20105;-24
2022/07/25 08:17:05;;;;;;;0.75;0.75;;;23.50;63.20;;;;;;5008847;28;20410;-23
2022/07/25 08:19:30;;;;;;;1.60;0.50;;;23.50;63.20;;;;;;5011002;28;20033;-24
2022/07/25 08:21:56;;;;;;;0.68;0.40;;;23.60;63.10;;;;;;5008662;28;20407;-23
2022/07/25 08:24:22;;;;;;;0.70;0.70;;;23.60;63.00;;;;;;5008148;28;20564;-24
2022/07/25 08:26:47;;;;;;;0.73;0.73;;;23.60;63.00;;;;;;5008397;28;20033;-29
2022/07/25 08:29:13;;;;;;;0.68;0.50;;;23.60;62.90;;;;;;5008788;28;20030;-26
2022/07/25 08:31:38;;;;;;;0.43;0.43;;;23.50;62.80;;;;;;5011027;28;20422;-23
2022/07/25 08:34:04;;;;;;;0.70;0.70;;;23.60;62.90;;;;;;5008481;28;20041;-26
2022/07/25 08:36:29;;;;;;;0.50;0.50;;;23.50;62.80;;;;;;5008617;28;20036;-22
2022/07/25 08:38:55;;;;;;;0.60;0.60;;;23.60;63.20;;;;;;5007163;28;20045;-22
2022/07/25 08:41:20;;;;;;;1.33;0.60;;;23.50;62.80;;;;;;5008362;28;20082;-22
2022/07/25 08:43:47;;;;;;;0.60;0.60;;;23.50;62.90;;;;;;4992407;28;20022;-23
2022/07/25 08:46:12;;;;;;;0.98;0.70;;;23.50;62.80;;;;;;4992876;28;20030;-23
2022/07/25 08:48:39;;;;;;;0.55;0.55;;;23.50;63.80;;;;;;4990914;28;20040;-23
2022/07/25 08:51:04;;;;;;;0.60;0.60;;;23.50;62.90;;;;;;5008348;28;20112;-24
2022/07/25 08:53:30;;;;;;;0.35;0.32;;;23.50;62.80;;;;;;4990952;28;20112;-28
2022/07/25 08:55:56;;;;;;;0.70;0.70;;;23.50;62.70;;;;;;4990590;28;20507;-28
2022/07/25 08:58:21;;;;;;;0.70;0.70;;;23.50;62.50;;;;;;4992895;28;20026;-23
2022/07/25 09:00:47;;;;;;;0.40;0.40;;;23.60;63.10;;;;;;4990691;28;20049;-25
2022/07/25 09:03:12;;;;;;;0.40;0.40;;;23.60;62.30;;;;;;5007933;28;20464;-24
2022/07/25 09:05:38;;;;;;;0.82;0.68;;;23.60;62.30;;;;;;5008132;28;20030;-23
2022/07/25 09:08:16;;;;;;;0.65;0.65;;;23.50;62.40;;;;;;5008212;28;20038;-23
2022/07/25 09:10:49;;;;;;;0.70;0.70;;;23.50;62.30;;;;;;5006399;28;20506;-23
2022/07/25 09:13:14;;;;;;;0.40;0.40;;;23.60;62.30;;;;;;5009064;28;20100;-23
2022/07/25 09:15:50;;;;;;;0.65;0.50;;;23.60;62.20;;;;;;5007726;28;20464;-22
2022/07/25 09:18:17;;;;;;;0.68;0.68;;;23.60;62.10;;;;;;5007558;28;20061;-24
2022/07/25 09:20:43;;;;;;;0.60;0.60;;;23.50;62.10;;;;;;5008050;28;20022;-23
2022/07/25 09:23:28;;;;;;;0.70;0.70;;;23.60;62.20;;;;;;4992128;28;20034;-23
2022/07/25 09:26:13;;;;;;;0.68;0.63;;;23.60;62.10;;;;;;5006353;28;20026;-26
2022/07/25 09:28:46;;;;;;;0.75;0.70;;;23.60;62.00;;;;;;5005857;28;20029;-22
2022/07/25 09:31:12;;;;;;;0.70;0.60;;;23.60;62.10;;;;;;5007526;28;20026;-26
2022/07/25 09:33:46;;;;;;;0.70;0.70;;;23.60;62.10;;;;;;4989902;28;20038;-23
2022/07/25 09:36:12;;;;;;;0.55;0.50;;;23.60;62.00;;;;;;4990106;28;20022;-23
2022/07/25 09:38:37;;;;;;;0.60;0.50;;;23.60;61.90;;;;;;5007578;28;20052;-23
2022/07/25 09:41:03;;;;;;;0.50;0.50;;;23.50;61.90;;;;;;5007746;28;20120;-23
2022/07/25 09:43:42;;;;;;;0.75;0.50;;;23.60;61.90;;;;;;5009565;28;20405;-28
2022/07/25 09:46:08;;;;;;;0.50;0.50;;;23.60;61.80;;;;;;5008187;28;20114;-24
2022/07/25 09:48:34;;;;;;;0.43;0.40;;;23.60;61.80;;;;;;5007304;28;20045;-23
2022/07/25 09:51:00;;;;;;;0.50;0.50;;;23.60;61.80;;;;;;5007492;28;20037;-25
2022/07/25 09:53:26;;;;;;;0.90;0.75;;;23.60;61.70;;;;;;5007237;28;20415;-22
2022/07/25 09:55:55;;;;;;;0.60;0.50;;;23.60;61.70;;;;;;5008460;28;20026;-27
2022/07/25 09:58:22;;;;;;;0.85;0.85;;;23.60;61.70;;;;;;5007469;28;20060;-23
2022/07/25 10:00:47;;;;;;;1.60;0.60;;;23.60;61.70;;;;;;4990048;28;20377;-22
2022/07/25 10:03:17;;;;;;;0.50;0.40;;;23.70;61.70;;;;;;4973538;28;20584;-24
2022/07/25 10:05:49;;;;;;;0.70;0.60;;;23.60;61.60;;;;;;5007451;28;20582;-22
2022/07/25 10:08:15;;;;;;;0.52;0.52;;;23.60;61.60;;;;;;4992318;28;20037;-25
2022/07/25 10:10:41;;;;;;;0.50;0.50;;;23.60;61.50;;;;;;4991909;28;20014;-23
2022/07/25 10:13:15;;;;;;;0.30;0.30;;;23.60;61.60;;;;;;5007321;28;20036;-22
2022/07/25 10:15:48;;;;;;;0.40;0.40;;;23.60;61.50;;;;;;5006854;28;20063;-22
2022/07/25 10:18:16;;;;;;;0.30;0.30;;;23.60;61.50;;;;;;5007111;28;20166;-25
2022/07/25 10:20:45;;;;;;;0.57;0.50;;;23.60;61.50;;;;;;5006560;28;20164;-27
2022/07/25 10:23:25;;;;;;;0.35;0.35;;;23.60;61.60;;;;;;5000462;28;20076;-25
2022/07/25 10:26:00;;;;;;;0.75;0.50;;;23.60;61.60;;;;;;5002090;28;20034;-23
2022/07/25 10:28:44;;;;;;;0.85;0.60;;;23.60;61.60;;;;;;4986181;28;20022;-22
2022/07/25 10:31:37;;;;;;;0.33;0.33;;;23.60;61.60;;;;;;5004629;28;20042;-23
2022/07/25 10:34:04;;;;;;;0.50;0.50;;;23.60;61.50;;;;;;4995420;28;20030;-23
2022/07/25 10:36:50;;;;;;;0.43;0.43;;;23.60;61.50;;;;;;5005653;28;20400;-23
2022/07/25 10:39:17;;;;;;;0.40;0.40;;;23.60;61.40;;;;;;4985007;28;20038;-24
2022/07/25 10:41:53;;;;;;;0.40;0.40;;;23.60;61.50;;;;;;5004768;28;20057;-31
2022/07/25 10:44:19;;;;;;;0.40;0.40;;;23.60;61.60;;;;;;5002462;28;20022;-22
2022/07/25 10:46:44;;;;;;;0.50;0.50;;;23.60;61.50;;;;;;5005286;28;20037;-23
2022/07/25 10:49:20;;;;;;;0.32;0.30;;;23.60;61.50;;;;;;5004122;28;20025;-26
2022/07/25 10:51:56;;;;;;;0.57;0.52;;;23.60;61.40;;;;;;4989024;28;20030;-23
2022/07/25 10:54:22;;;;;;;0.57;0.30;;;23.70;61.50;;;;;;5002630;28;20026;-23
2022/07/25 10:56:52;;;;;;;0.73;0.45;;;23.60;61.40;;;;;;5003672;28;20107;-30
2022/07/25 10:59:29;;;;;;;0.40;0.40;;;23.70;61.50;;;;;;5004542;28;20030;-25
2022/07/25 11:01:54;;;;;;;0.30;0.30;;;23.60;61.50;;;;;;5002823;28;20038;-22
2022/07/25 11:04:20;;;;;;;0.50;0.50;;;23.70;61.50;;;;;;5016798;28;20091;-23
2022/07/25 11:06:45;;;;;;;0.30;0.30;;;23.60;62.30;;;;;;5004678;28;20029;-27
2022/07/25 11:09:16;;;;;;;0.50;0.30;;;23.70;61.50;;;;;;5004709;28;20030;-22
2022/07/25 11:11:50;;;;;;;0.52;0.40;;;23.60;61.50;;;;;;4988283;28;20022;-23
2022/07/25 11:14:15;;;;;;;0.30;0.30;;;23.60;61.40;;;;;;5001008;28;20050;-23
2022/07/25 11:16:42;;;;;;;0.38;0.32;;;23.70;61.40;;;;;;5005922;28;20022;-30
2022/07/25 11:19:22;;;;;;;0.40;0.40;;;23.60;61.40;;;;;;5004480;28;20084;-31
2022/07/25 11:21:52;;;;;;;0.30;0.30;;;23.70;61.40;;;;;;5004335;28;20022;-24
2022/07/25 11:24:18;;;;;;;0.38;0.38;;;23.70;61.30;;;;;;5002386;28;20022;-23
2022/07/25 11:26:51;;;;;;;0.70;0.40;;;23.70;61.30;;;;;;5003547;28;20056;-23
2022/07/25 11:29:18;;;;;;;0.35;0.30;;;23.80;61.80;;;;;;5000341;28;20034;-48
2022/07/25 11:31:50;;;;;;;0.30;0.30;;;23.80;61.10;;;;;;4999781;28;20044;-26
2022/07/25 11:34:16;;;;;;;0.47;0.20;;;23.70;61.50;;;;;;5000121;28;20021;-28
2022/07/25 11:36:42;;;;;;;0.82;0.47;;;23.80;62.80;;;;;;4987664;28;20490;-24
2022/07/25 11:39:07;;;;;;;0.60;0.47;;;23.80;61.60;;;;;;4995605;28;20418;-29
2022/07/25 11:41:33;;;;;;;0.50;0.40;;;23.80;62.00;;;;;;5003207;28;20034;-27
2022/07/25 11:43:58;;;;;;;0.57;0.50;;;23.70;62.10;;;;;;5003630;28;20037;-24
2022/07/25 11:46:24;;;;;;;0.80;0.40;;;23.80;62.30;;;;;;5004651;28;20381;-27
2022/07/25 11:48:50;;;;;;;1.02;0.60;;;23.70;62.30;;;;;;4985180;28;20087;-26
2022/07/25 11:51:17;;;;;;;0.60;0.60;;;23.80;62.40;;;;;;5002468;28;20026;-22
2022/07/25 11:53:49;;;;;;;1.13;0.60;;;23.80;62.30;;;;;;5002172;28;20034;-22
2022/07/25 11:56:19;;;;;;;1.05;0.60;;;23.80;62.20;;;;;;5002108;28;20030;-29
2022/07/25 11:59:11;;;;;;;0.50;0.40;;;23.80;62.20;;;;;;5001119;28;20030;-22
2022/07/25 12:01:40;;;;;;;1.42;0.77;;;23.70;62.00;;;;;;5001788;28;20069;-23
2022/07/25 12:04:14;;;;;;;1.10;0.57;;;23.80;62.00;;;;;;5001877;28;20519;-27
2022/07/25 12:06:41;;;;;;;0.60;0.50;;;23.80;61.70;;;;;;5004317;28;20054;-24
2022/07/25 12:09:11;;;;;;;1.77;0.75;;;23.80;61.60;;;;;;5004349;28;20019;-22
2022/07/25 12:11:36;;;;;;;0.52;0.40;;;23.80;61.40;;;;;;4986483;28;20026;-25
2022/07/25 12:14:03;;;;;;;0.80;0.50;;;23.80;61.30;;;;;;4988432;28;20022;-26
2022/07/25 12:16:29;;;;;;;1.80;0.43;;;23.80;61.30;;;;;;5005554;28;20100;-28
2022/07/25 12:18:55;;;;;;;1.30;0.60;;;23.80;61.30;;;;;;5002836;28;20038;-23
2022/07/25 12:21:20;;;;;;;0.93;0.50;;;23.80;61.00;;;;;;5002355;28;20026;-29
2022/07/25 12:23:46;;;;;;;0.40;0.32;;;23.80;61.10;;;;;;5003490;28;20032;-25
2022/07/25 12:26:13;;;;;;;0.30;0.30;;;23.80;61.00;;;;;;5004171;28;20508;-22
2022/07/25 12:28:39;;;;;;;0.43;0.30;;;23.80;60.90;;;;;;5004924;28;20033;-22
2022/07/25 12:31:05;;;;;;;0.35;0.32;;;23.80;61.70;;;;;;5003239;28;20452;-22
2022/07/25 12:33:31;;;;;;;0.30;0.30;;;23.80;60.90;;;;;;5002596;28;20491;-22
2022/07/25 12:35:57;;;;;;;0.47;0.30;;;23.80;60.80;;;;;;5002007;28;20609;-29
2022/07/25 12:38:23;;;;;;;0.90;0.43;;;23.80;60.80;;;;;;5003264;28;20051;-22
2022/07/25 12:40:49;;;;;;;0.80;0.52;;;23.80;60.70;;;;;;5004980;28;20038;-30
2022/07/25 12:43:14;;;;;;;0.28;0.17;;;23.80;60.60;;;;;;5004538;28;20454;-23
2022/07/25 12:45:41;;;;;;;0.22;0.20;;;23.80;60.50;;;;;;5002684;28;20106;-29
2022/07/25 12:48:07;;;;;;;1.05;0.35;;;23.90;60.40;;;;;;5000655;28;20412;-23
2022/07/25 12:50:32;;;;;;;0.38;0.38;;;23.80;60.50;;;;;;5003082;28;20014;-24
2022/07/25 12:52:58;;;;;;;3.13;0.50;;;23.80;60.40;;;;;;5002903;28;20109;-22
2022/07/25 12:55:24;;;;;;;0.20;0.20;;;23.80;60.40;;;;;;5001702;28;20029;-22
2022/07/25 12:57:49;;;;;;;0.65;0.30;;;23.80;60.30;;;;;;5004000;28;20033;-24
2022/07/25 13:00:16;;;;;;;0.30;0.30;;;23.80;60.30;;;;;;5001819;28;20029;-23